createdAt,value
2023-01-11T00:00:30.402Z,100652.78
2023-01-11T00:02:58.950Z,100656.06
2023-01-11T00:05:28.624Z,100643.63
2023-01-11T00:07:57.369Z,100645.25
2023-01-11T00:10:30.418Z,100641.28
2023-01-11T00:12:56.766Z,100641.94
2023-01-11T00:15:26.163Z,100633.44
2023-01-11T00:17:55.410Z,100631.13
2023-01-11T00:20:21.778Z,100634.09
2023-01-11T00:23:07.197Z,100632.13
2023-01-11T00:25:33.667Z,100631.94
2023-01-11T00:28:00.021Z,100631.00
2023-01-11T00:30:26.554Z,100631.00
2023-01-11T00:32:57.537Z,100629.03
2023-01-11T00:35:25.079Z,100629.81
2023-01-11T00:37:55.901Z,100632.28
2023-01-11T00:40:25.761Z,100633.28
2023-01-11T00:43:11.010Z,100621.78
2023-01-11T00:48:38.616Z,100624.56
2023-01-11T00:51:05.730Z,100623.75
2023-01-11T00:53:35.230Z,100612.09
2023-01-11T00:56:05.054Z,100609.16
2023-01-11T00:58:31.404Z,100602.91
2023-01-11T01:00:58.652Z,100605.34
2023-01-11T01:03:27.667Z,100607.00
2023-01-11T01:05:55.321Z,100598.31
2023-01-11T01:08:21.738Z,100606.00
2023-01-11T01:10:55.901Z,100603.56
2023-01-11T01:13:43.851Z,100607.66
2023-01-11T01:16:10.225Z,100607.66
2023-01-11T01:21:19.843Z,100610.41
2023-01-11T01:23:52.045Z,100612.88
2023-01-11T01:26:21.911Z,100606.66
2023-01-11T01:28:52.445Z,100600.56
2023-01-11T01:31:18.864Z,100614.34
2023-01-11T01:33:49.236Z,100610.56
2023-01-11T01:36:15.598Z,100612.38
2023-01-11T01:38:41.973Z,100610.56
2023-01-11T01:41:08.883Z,100610.56
2023-01-11T01:44:02.551Z,100609.59
2023-01-11T01:46:36.191Z,100608.75
2023-01-11T01:49:17.909Z,100610.03
2023-01-11T01:51:52.350Z,100605.63
2023-01-11T01:54:29.059Z,100615.78
2023-01-11T01:57:01.862Z,100609.69
2023-01-11T01:59:30.982Z,100601.03
2023-01-11T02:01:57.762Z,100609.19
2023-01-11T02:04:45.104Z,100620.34
2023-01-11T02:07:23.033Z,100612.47
2023-01-11T02:10:14.208Z,100612.47
2023-01-11T02:12:59.092Z,100612.13
2023-01-11T02:15:31.943Z,100614.56
2023-01-11T02:17:58.429Z,100619.19
2023-01-11T02:20:44.902Z,100622.44
2023-01-11T02:23:44.850Z,100619.19
2023-01-11T02:26:46.582Z,100619.81
2023-01-11T02:29:31.395Z,100624.72
2023-01-11T02:32:31.447Z,100622.09
2023-01-11T02:35:21.641Z,100615.53
2023-01-11T02:41:25.912Z,100617.16
2023-01-11T02:44:16.060Z,100621.28
2023-01-11T02:46:59.880Z,100624.53
2023-01-11T02:49:56.759Z,100620.75
2023-01-11T02:52:41.323Z,100625.66
2023-01-11T02:55:18.953Z,100625.47
2023-01-11T02:57:47.201Z,100626.28
2023-01-11T03:00:16.856Z,100640.22
2023-01-11T03:02:43.355Z,100636.59
2023-01-11T03:05:19.193Z,100644.16
2023-01-11T03:07:59.714Z,100651.22
2023-01-11T03:11:06.470Z,100639.53
2023-01-11T03:14:00.705Z,100641.19
2023-01-11T03:17:05.190Z,100648.72
2023-01-11T03:19:43.673Z,100639.03
2023-01-11T03:22:17.714Z,100651.97
2023-01-11T03:25:16.250Z,100659.06
2023-01-11T03:28:10.797Z,100661.69
2023-01-11T03:30:58.679Z,100657.88
2023-01-11T03:33:38.736Z,100651.81
2023-01-11T03:36:33.118Z,100657.06
2023-01-11T03:39:26.591Z,100660.50
2023-01-11T03:41:57.246Z,100656.75
2023-01-11T03:47:19.836Z,100650.00
2023-01-11T03:49:53.266Z,100642.94
2023-01-11T03:52:29.950Z,100655.25
2023-01-11T03:55:05.724Z,100661.34
2023-01-11T03:57:36.183Z,100661.16
2023-01-11T04:00:07.568Z,100663.97
2023-01-11T04:02:48.076Z,100666.59
2023-01-11T04:05:17.303Z,100676.09
2023-01-11T04:07:43.650Z,100672.63
2023-01-11T04:10:21.561Z,100669.88
2023-01-11T04:12:55.459Z,100672.50
2023-01-11T04:15:21.813Z,100673.63
2023-01-11T04:17:48.152Z,100678.72
2023-01-11T04:20:17.651Z,100696.13
2023-01-11T04:22:46.783Z,100693.31
2023-01-11T04:25:13.215Z,100690.88
2023-01-11T04:27:42.920Z,100691.84
2023-01-11T04:30:09.864Z,100696.94
2023-01-11T04:32:36.242Z,100703.84
2023-01-11T04:35:10.984Z,100709.09
2023-01-11T04:37:37.473Z,100701.38
2023-01-11T04:40:09.713Z,100707.59
2023-01-11T04:42:36.377Z,100697.09
2023-01-11T04:45:06.037Z,100706.28
2023-01-11T04:47:34.078Z,100713.50
2023-01-11T04:50:00.500Z,100704.63
2023-01-11T04:52:26.903Z,100715.13
2023-01-11T04:54:56.758Z,100709.41
2023-01-11T04:57:25.902Z,100712.19
2023-01-11T04:59:56.170Z,100722.53
2023-01-11T05:02:29.784Z,100719.91
2023-01-11T05:04:57.746Z,100717.44
2023-01-11T05:07:24.097Z,100718.28
2023-01-11T05:09:50.521Z,100733.19
2023-01-11T05:12:16.866Z,100719.09
2023-01-11T05:14:48.866Z,100727.16
2023-01-11T05:17:16.228Z,100729.94
2023-01-11T05:19:42.717Z,100731.09
2023-01-11T05:22:12.533Z,100740.97
2023-01-11T05:24:38.882Z,100743.59
2023-01-11T05:27:08.556Z,100741.13
2023-01-11T05:29:39.986Z,100755.41
2023-01-11T05:32:06.428Z,100756.22
2023-01-11T05:34:38.600Z,100754.75
2023-01-11T05:37:04.972Z,100752.28
2023-01-11T05:39:31.332Z,100764.78
2023-01-11T05:42:01.922Z,100765.13
2023-01-11T05:44:50.030Z,100764.31
2023-01-11T05:47:16.396Z,100755.13
2023-01-11T05:49:45.903Z,100758.72
2023-01-11T05:52:16.040Z,100768.44
2023-01-11T05:54:43.843Z,100777.94
2023-01-11T05:57:16.050Z,100776.13
2023-01-11T05:59:42.414Z,100776.44
2023-01-11T06:02:17.341Z,100779.25
2023-01-11T06:04:43.791Z,100782.84
2023-01-11T06:07:15.971Z,100786.00
2023-01-11T06:09:42.349Z,100781.06
2023-01-11T06:12:08.798Z,100789.78
2023-01-11T06:14:38.879Z,100787.50
2023-01-11T06:17:08.084Z,100790.25
2023-01-11T06:19:34.542Z,100800.44
2023-01-11T06:22:04.695Z,100801.25
2023-01-11T06:24:31.144Z,100809.28
2023-01-11T06:26:57.498Z,100810.63
2023-01-11T06:29:23.915Z,100815.38
2023-01-11T06:31:50.287Z,100825.03
2023-01-11T06:34:16.688Z,100815.88
2023-01-11T06:36:43.130Z,100816.84
2023-01-11T06:39:12.730Z,100827.69
2023-01-11T06:41:41.921Z,100833.41
2023-01-11T06:44:08.340Z,100835.22
2023-01-11T06:46:37.962Z,100835.22
2023-01-11T06:49:04.388Z,100839.63
2023-01-11T06:51:30.840Z,100835.53
2023-01-11T06:54:06.869Z,100847.81
2023-01-11T06:56:33.215Z,100846.34
2023-01-11T06:59:02.871Z,100853.56
2023-01-11T07:01:32.570Z,100845.19
2023-01-11T07:06:47.717Z,100854.38
2023-01-11T07:09:16.933Z,100869.44
2023-01-11T07:14:27.470Z,100862.34
2023-01-11T07:16:53.807Z,100879.09
2023-01-11T07:19:20.278Z,100883.66
2023-01-11T07:21:46.680Z,100895.25
2023-01-11T07:24:16.116Z,100899.19
2023-01-11T07:26:45.586Z,100903.13
2023-01-11T07:29:19.436Z,100905.56
2023-01-11T07:31:48.597Z,100915.53
2023-01-11T07:36:59.757Z,100922.19
2023-01-11T07:39:38.440Z,100920.38
2023-01-11T07:42:32.125Z,100929.19
2023-01-11T07:44:58.520Z,100935.72
2023-01-11T07:47:27.294Z,100930.13
2023-01-11T07:49:56.587Z,100936.63
2023-01-11T07:52:22.984Z,100933.22
2023-01-11T07:54:53.575Z,100934.47
2023-01-11T07:57:19.961Z,100940.88
2023-01-11T07:59:46.334Z,100946.72
2023-01-11T08:02:12.722Z,100958.31
2023-01-11T08:04:39.080Z,100964.22
2023-01-11T08:07:05.476Z,100966.53
2023-01-11T08:09:31.946Z,100979.47
2023-01-11T08:12:23.129Z,100974.41
2023-01-11T08:14:49.466Z,100978.84
2023-01-11T08:17:16.766Z,100980.25
2023-01-11T08:19:46.333Z,100991.66
2023-01-11T08:22:18.055Z,100986.88
2023-01-11T08:24:44.925Z,100986.50
2023-01-11T08:27:11.447Z,100982.09
2023-01-11T08:29:38.087Z,100995.19
2023-01-11T08:32:04.714Z,100999.06
2023-01-11T08:40:03.285Z,101022.09
2023-01-11T08:42:29.650Z,101036.47
2023-01-11T08:45:01.849Z,101037.06
2023-01-11T08:47:28.367Z,101043.53
2023-01-11T08:49:54.868Z,101048.63
2023-01-11T08:52:30.248Z,101048.94
2023-01-11T08:54:56.677Z,101043.69
2023-01-11T08:57:25.884Z,101054.47
2023-01-11T08:59:55.036Z,101056.28
2023-01-11T09:02:21.520Z,101061.81
2023-01-11T09:04:50.934Z,101068.66
2023-01-11T09:07:20.232Z,101061.94
2023-01-11T09:09:50.199Z,101069.66
2023-01-11T09:12:16.572Z,101072.84
2023-01-11T09:14:43.020Z,101071.34
2023-01-11T09:17:09.820Z,101063.78
2023-01-11T09:19:39.337Z,101066.56
2023-01-11T09:22:08.491Z,101071.78
2023-01-11T09:24:35.921Z,101075.09
2023-01-11T09:27:05.360Z,101077.13
2023-01-11T09:29:37.473Z,101083.25
2023-01-11T09:32:06.855Z,101069.56
2023-01-11T09:34:33.356Z,101080.56
2023-01-11T09:37:09.958Z,101081.78
2023-01-11T09:39:37.093Z,101083.88
2023-01-11T09:42:40.545Z,101076.91
2023-01-11T09:48:28.738Z,101093.53
2023-01-11T09:51:24.169Z,101086.47
2023-01-11T09:54:07.950Z,101085.22
2023-01-11T09:56:47.935Z,101092.25
2023-01-11T09:59:26.347Z,101087.25
2023-01-11T10:02:23.580Z,101094.78
2023-01-11T10:05:09.364Z,101093.53
2023-01-11T10:18:23.801Z,101100.41
2023-01-11T10:18:52.867Z,101106.50
2023-01-11T10:21:38.045Z,101099.91
2023-01-11T10:24:46.576Z,101093.41
2023-01-11T10:27:36.211Z,101096.81
2023-01-11T10:30:52.109Z,101096.69
2023-01-11T10:33:40.052Z,101102.94
2023-01-11T10:36:39.592Z,101118.50
2023-01-11T10:39:51.174Z,101125.97
2023-01-11T10:42:32.891Z,101113.81
2023-01-11T10:45:21.816Z,101116.25
2023-01-11T10:51:19.634Z,101120.34
2023-01-11T10:54:17.852Z,101110.19
2023-01-11T10:57:18.139Z,101115.41
2023-01-11T10:59:59.533Z,101126.59
2023-01-11T11:02:42.554Z,101124.59
2023-01-11T11:05:23.387Z,101121.34
2023-01-11T11:07:59.595Z,101126.91
2023-01-11T11:13:46.452Z,101120.88
2023-01-11T11:16:30.427Z,101121.22
2023-01-11T11:19:08.686Z,101118.59
2023-01-11T11:21:41.937Z,101110.44
2023-01-11T11:24:17.953Z,101097.84
2023-01-11T11:26:54.123Z,101091.91
2023-01-11T11:29:23.326Z,101106.84
2023-01-11T11:31:58.628Z,101105.66
2023-01-11T11:34:29.381Z,101105.50
2023-01-11T11:37:00.387Z,101118.16
2023-01-11T11:42:16.523Z,101113.06
2023-01-11T11:45:06.845Z,101108.00
2023-01-11T11:47:37.082Z,101101.28
2023-01-11T11:50:43.664Z,101109.34
2023-01-11T11:53:34.997Z,101126.25
2023-01-11T11:56:36.025Z,101114.13
2023-01-11T11:59:11.180Z,101123.28
2023-01-11T12:01:47.729Z,101128.66
2023-01-11T12:04:18.155Z,101130.44
2023-01-11T12:07:08.929Z,101140.75
2023-01-11T12:09:44.267Z,101124.69
2023-01-11T12:12:20.771Z,101128.47
2023-01-11T12:15:05.702Z,101130.94
2023-01-11T12:20:47.980Z,101134.50
2023-01-11T12:23:39.797Z,101141.59
2023-01-11T12:26:30.084Z,101144.09
2023-01-11T12:29:23.377Z,101132.28
2023-01-11T12:32:24.283Z,101136.09
2023-01-11T12:35:20.849Z,101132.97
2023-01-11T12:38:16.503Z,101119.56
2023-01-11T12:41:16.462Z,101117.75
2023-01-11T12:44:10.300Z,101126.44
2023-01-11T12:46:58.322Z,101127.69
2023-01-11T12:49:43.645Z,101128.66
2023-01-11T12:52:43.999Z,101134.50
2023-01-11T12:55:36.611Z,101138.66
2023-01-11T12:58:24.498Z,101147.47
2023-01-11T13:01:19.070Z,101146.69
2023-01-11T13:04:29.386Z,101155.03
2023-01-11T13:07:24.472Z,101157.34
2023-01-11T13:10:11.525Z,101152.41
2023-01-11T13:12:57.035Z,101153.59
2023-01-11T13:15:48.843Z,101138.69
2023-01-11T13:18:37.217Z,101158.19
2023-01-11T13:21:55.550Z,101150.25
2023-01-11T13:24:33.441Z,101137.56
2023-01-11T13:27:05.902Z,101143.13
2023-01-11T13:29:42.507Z,101137.88
2023-01-11T13:32:35.278Z,101128.06
2023-01-11T13:36:00.056Z,101127.94
2023-01-11T13:38:49.456Z,101127.66
2023-01-11T13:41:50.750Z,101115.06
2023-01-11T13:44:29.329Z,101112.59
2023-01-11T13:47:26.014Z,101110.66
2023-01-11T13:50:16.754Z,101111.63
2023-01-11T13:53:04.541Z,101101.47
2023-01-11T13:56:10.219Z,101106.56
2023-01-11T13:59:31.724Z,101099.31
2023-01-11T14:02:02.440Z,101109.97
2023-01-11T14:04:54.506Z,101108.44
2023-01-11T14:08:02.424Z,101113.69
2023-01-11T14:10:45.164Z,101102.22
2023-01-11T14:13:59.143Z,101132.88
2023-01-11T14:16:51.259Z,101120.56
2023-01-11T14:19:51.394Z,101128.75
2023-01-11T14:22:51.873Z,101126.91
2023-01-11T14:25:45.036Z,101132.91
2023-01-11T14:28:36.123Z,101130.38
2023-01-11T14:31:40.167Z,101129.06
2023-01-11T14:34:15.686Z,101127.56
2023-01-11T14:37:26.555Z,101130.34
2023-01-11T14:40:11.547Z,101133.91
2023-01-11T14:42:44.175Z,101121.63
2023-01-11T14:45:16.046Z,101121.94
2023-01-11T14:47:53.837Z,101120.09
2023-01-11T14:50:35.196Z,101114.50
2023-01-11T14:53:41.607Z,101104.31
2023-01-11T14:56:41.954Z,101121.31
2023-01-11T14:59:30.134Z,101108.34
2023-01-11T15:02:02.671Z,101115.03
2023-01-11T15:04:52.203Z,101119.75
2023-01-11T15:07:28.378Z,101121.22
2023-01-11T15:09:56.629Z,101120.00
2023-01-11T15:12:52.415Z,101124.59
2023-01-11T15:15:21.093Z,101126.00
2023-01-11T15:18:21.599Z,101121.91
2023-01-11T15:21:04.677Z,101122.84
2023-01-11T15:23:37.750Z,101128.41
2023-01-11T15:26:07.931Z,101112.81
2023-01-11T15:28:40.300Z,101131.16
2023-01-11T15:31:06.847Z,101125.63
2023-01-11T15:33:53.673Z,101123.69
2023-01-11T15:36:51.145Z,101133.03
2023-01-11T15:39:42.510Z,101118.59
2023-01-11T15:42:52.851Z,101130.47
2023-01-11T15:46:09.624Z,101137.84
2023-01-11T15:49:07.108Z,101135.00
2023-01-11T15:52:08.733Z,101146.31
2023-01-11T15:55:19.831Z,101145.78
2023-01-11T15:58:15.313Z,101155.03
2023-01-11T16:01:03.451Z,101153.41
2023-01-11T16:03:52.186Z,101171.19
2023-01-11T16:06:40.771Z,101164.69
2023-01-11T16:09:28.674Z,101157.34
2023-01-11T16:11:54.989Z,101159.56
2023-01-11T16:14:52.208Z,101166.97
2023-01-11T16:20:34.223Z,101146.31
2023-01-11T16:23:03.368Z,101158.03
2023-01-11T16:25:37.879Z,101160.41
2023-01-11T16:28:08.377Z,101158.53
2023-01-11T16:30:35.562Z,101140.50
2023-01-11T16:33:27.058Z,101155.09
2023-01-11T16:36:04.711Z,101156.53
2023-01-11T16:38:38.604Z,101139.97
2023-01-11T16:41:15.106Z,101146.72
2023-01-11T16:44:01.444Z,101151.66
2023-01-11T16:47:07.570Z,101145.91
2023-01-11T16:49:34.393Z,101150.09
2023-01-11T16:52:27.983Z,101145.22
2023-01-11T16:57:48.818Z,101156.66
2023-01-11T17:00:38.189Z,101154.88
2023-01-11T17:03:19.182Z,101157.50
2023-01-11T17:06:14.772Z,101150.84
2023-01-11T17:08:43.230Z,101143.97
2023-01-11T17:11:37.143Z,101136.63
2023-01-11T17:14:34.202Z,101144.75
2023-01-11T17:17:12.277Z,101142.28
2023-01-11T17:19:46.865Z,101139.16
2023-01-11T17:22:31.085Z,101134.16
2023-01-11T17:25:04.819Z,101150.09
2023-01-11T17:27:42.989Z,101155.47
2023-01-11T17:30:19.151Z,101143.75
2023-01-11T17:32:54.926Z,101132.00
2023-01-11T17:38:11.074Z,101119.59
2023-01-11T17:40:41.299Z,101117.78
2023-01-11T17:44:01.250Z,101113.50
2023-01-11T17:46:27.705Z,101124.66
2023-01-11T17:49:01.770Z,101116.66
2023-01-11T17:51:38.103Z,101105.88
2023-01-11T17:54:19.545Z,101118.16
2023-01-11T17:56:58.681Z,101091.44
2023-01-11T17:59:30.136Z,101096.97
2023-01-11T18:02:04.332Z,101095.03
2023-01-11T18:04:33.619Z,101092.56
2023-01-11T18:07:16.815Z,101086.88
2023-01-11T18:09:56.484Z,101092.25
2023-01-11T18:12:29.097Z,101088.22
2023-01-11T18:15:01.773Z,101087.91
2023-01-11T18:17:40.184Z,101092.31
2023-01-11T18:20:16.061Z,101088.56
2023-01-11T18:23:05.055Z,101096.59
2023-01-11T18:25:37.123Z,101071.91
2023-01-11T18:28:26.842Z,101083.44
2023-01-11T19:16:25.062Z,101018.50
2023-01-11T19:18:55.171Z,101011.63
2023-01-11T19:21:24.502Z,101017.97
2023-01-11T19:23:51.172Z,101004.50
2023-01-11T19:26:19.875Z,100999.13
2023-01-11T19:28:49.118Z,100995.88
2023-01-11T19:31:15.652Z,100991.59
2023-01-11T19:33:47.255Z,100978.94
2023-01-11T19:36:13.669Z,100983.34
2023-01-11T19:38:40.271Z,100978.56
2023-01-11T19:41:16.773Z,100982.16
2023-01-11T19:43:48.411Z,100967.91
2023-01-11T19:46:30.683Z,100975.22
2023-01-11T19:49:00.972Z,100974.53
2023-01-11T19:51:27.404Z,100957.06
2023-01-11T19:53:56.798Z,100961.16
2023-01-11T19:56:26.210Z,100967.00
2023-01-11T20:01:37.146Z,100975.88
2023-01-11T20:04:06.883Z,100970.81
2023-01-11T20:06:33.538Z,100935.59
2023-01-11T20:09:04.923Z,100961.34
2023-01-11T20:11:34.379Z,100949.41
2023-01-11T20:14:03.368Z,100962.09
2023-01-11T20:16:30.187Z,100958.00
2023-01-11T20:18:57.371Z,100957.16
2023-01-11T20:21:26.877Z,100961.59
2023-01-11T20:23:55.405Z,100955.22
2023-01-11T20:26:30.831Z,100961.94
2023-01-11T20:29:00.676Z,100967.31
2023-01-11T20:31:28.842Z,100969.78
2023-01-11T20:34:20.413Z,100964.13
2023-01-11T20:36:48.515Z,100981.47
2023-01-11T20:39:19.878Z,100980.78
2023-01-11T20:41:52.365Z,100974.88
2023-01-11T20:44:26.328Z,100971.81
2023-01-11T20:46:58.047Z,100974.44
2023-01-11T20:49:34.479Z,100980.63
2023-01-11T20:52:00.954Z,100979.66
2023-01-11T20:54:38.902Z,100970.03
2023-01-11T20:57:12.145Z,100974.00
2023-01-11T20:59:38.564Z,100978.41
2023-01-11T21:02:07.803Z,100966.81
2023-01-11T21:04:35.685Z,100981.72
2023-01-11T21:07:05.378Z,100981.72
2023-01-11T21:09:33.937Z,100981.72
2023-01-11T21:12:00.683Z,100980.03
2023-01-11T21:14:27.062Z,100981.56
2023-01-11T21:16:55.219Z,100989.91
2023-01-11T21:19:22.466Z,100985.81
2023-01-11T21:21:52.187Z,100982.66
2023-01-11T21:24:18.714Z,100980.03
2023-01-11T21:26:54.370Z,100971.25
2023-01-11T21:29:20.805Z,100965.72
2023-01-11T21:31:50.406Z,100976.03
2023-01-11T21:34:19.635Z,100961.28
2023-01-11T21:36:48.142Z,100969.97
2023-01-11T21:39:20.327Z,100953.59
2023-01-11T21:41:56.774Z,100964.19
2023-01-11T21:44:29.263Z,100970.94
2023-01-11T21:46:58.425Z,100968.03
2023-01-11T21:49:28.056Z,100966.22
2023-01-11T21:51:57.012Z,100963.75
2023-01-11T21:54:29.704Z,100958.53
2023-01-11T21:56:56.163Z,100961.69
2023-01-11T21:59:26.792Z,100960.56
2023-01-11T22:01:53.183Z,100948.44
2023-01-11T22:04:20.655Z,100955.69
2023-01-11T22:06:56.856Z,100951.97
2023-01-11T22:09:25.655Z,100942.84
2023-01-11T22:11:52.074Z,100945.31
2023-01-11T22:14:21.709Z,100943.22
2023-01-11T22:16:48.517Z,100939.13
2023-01-11T22:19:18.029Z,100952.56
2023-01-11T22:21:44.646Z,100947.69
2023-01-11T22:24:12.127Z,100943.81
2023-01-11T22:26:45.709Z,100950.84
2023-01-11T22:29:12.158Z,100958.84
2023-01-11T22:34:29.731Z,100955.63
2023-01-11T22:36:56.883Z,100943.81
2023-01-11T22:39:29.449Z,100953.16
2023-01-11T22:41:55.794Z,100945.16
2023-01-11T22:44:22.520Z,100938.94
2023-01-11T22:46:49.578Z,100944.31
2023-01-11T22:49:21.112Z,100960.31
2023-01-11T22:51:56.620Z,100948.91
2023-01-11T22:54:23.040Z,100934.00
2023-01-11T22:56:49.437Z,100947.75
2023-01-11T22:59:15.851Z,100981.78
2023-01-11T23:01:49.698Z,100962.63
2023-01-11T23:04:29.138Z,100958.91
2023-01-11T23:06:59.621Z,100966.09
2023-01-11T23:09:29.395Z,100957.41
2023-01-11T23:12:14.705Z,100976.41
2023-01-11T23:14:41.386Z,100968.69
